Strona główna
METAR-TAF:

METAR-TAF

Lotnisko :

Petrolina, Pernambuco, Brazylia

Szerokość geograficzna: 09-21S, Długość geograficzna: 040-33W, wysokość: 385 m

Aktualna obserwacja pogody

Raport powstał 1 godzina i 22 minut temu, godzina 00:00 UTC
Wiatr 5 kt od południe
Temperatura 30°C
Wilgotność 46%
Ciśnienie 1014 hPa
Widzialność 10 km lub więcej
Brak chmur poniżej 1500 m i brak chmur cumulonimbus

METAR: SBPL 130000Z 18005KT CAVOK 30/17 Q1014

czas: 22:22 (01:22 UTC)

Prognoza

Raport powstał 4 godziny i 22 minut temu, godzina 21:00 UTC
Prognoza ważna od 13 godzina 00 UTC do 13 godzina 24 UTC
Wiatr 5 kt od południowo-południowy wschód
Widzialność 10 km lub więcej
Rozproszone chmury na wysokości 2500 ft

TAF: SBPL 122100Z 1300/1324 16005KT 9999 SCT025 TN24/1308Z TX33/1316Z RMK PHD

Obserwacja i prognoza pogody dla ponad 4000 lotnisk (raport METAR i TAF).

Dostępne stacje oznaczono żółtymi i czerwonymi punktami na mapie.

Najedź kursorem aby zobaczyć nazwę stacji.

Kliknij aby zobaczyć obserwacje i prognozy pogody.

Aby zmienić mapę: kliknij na zielony przycisk z czarnym krzyżykiem, aby powiększyć; na zielony przycisk z myślnikiem, aby pomniejszyć; na zielone strzałki, aby przejść do map sąsiednich.


METAR-TAF: